sensor_id;sensor_type;location;lat;lon;timestamp;P1;durP1;ratioP1;P2;durP2;ratioP2
66628;SDS011;53532;53.084;6.352;2023-03-03T00:00:50;368.83;;;45.63;;
66628;SDS011;53532;53.084;6.352;2023-03-03T00:03:18;324.90;;;43.37;;
66628;SDS011;53532;53.084;6.352;2023-03-03T00:05:44;331.13;;;41.50;;
66628;SDS011;53532;53.084;6.352;2023-03-03T00:08:10;259.70;;;36.33;;
66628;SDS011;53532;53.084;6.352;2023-03-03T00:10:38;176.83;;;30.37;;
66628;SDS011;53532;53.084;6.352;2023-03-03T00:13:05;157.37;;;28.27;;
66628;SDS011;53532;53.084;6.352;2023-03-03T00:15:31;190.90;;;33.27;;
66628;SDS011;53532;53.084;6.352;2023-03-03T00:17:57;160.80;;;29.37;;
66628;SDS011;53532;53.084;6.352;2023-03-03T00:20:26;197.80;;;32.10;;
66628;SDS011;53532;53.084;6.352;2023-03-03T00:22:54;411.23;;;46.73;;
66628;SDS011;53532;53.084;6.352;2023-03-03T00:25:23;179.77;;;30.50;;
66628;SDS011;53532;53.084;6.352;2023-03-03T00:27:52;216.50;;;32.63;;
66628;SDS011;53532;53.084;6.352;2023-03-03T00:30:19;253.30;;;35.17;;
66628;SDS011;53532;53.084;6.352;2023-03-03T00:32:49;218.90;;;32.10;;
66628;SDS011;53532;53.084;6.352;2023-03-03T00:35:20;286.80;;;36.30;;
66628;SDS011;53532;53.084;6.352;2023-03-03T00:37:48;260.00;;;33.33;;
66628;SDS011;53532;53.084;6.352;2023-03-03T00:40:20;191.27;;;30.80;;
66628;SDS011;53532;53.084;6.352;2023-03-03T00:45:20;306.63;;;37.87;;
66628;SDS011;53532;53.084;6.352;2023-03-03T00:47:47;328.93;;;40.30;;
66628;SDS011;53532;53.084;6.352;2023-03-03T00:50:20;227.30;;;33.73;;
66628;SDS011;53532;53.084;6.352;2023-03-03T00:52:53;350.30;;;43.03;;
66628;SDS011;53532;53.084;6.352;2023-03-03T00:55:20;389.33;;;46.87;;
66628;SDS011;53532;53.084;6.352;2023-03-03T00:57:46;282.53;;;36.77;;
66628;SDS011;53532;53.084;6.352;2023-03-03T01:00:13;263.30;;;33.07;;
66628;SDS011;53532;53.084;6.352;2023-03-03T01:02:41;208.67;;;28.37;;
66628;SDS011;53532;53.084;6.352;2023-03-03T01:05:11;235.05;;;28.42;;
66628;SDS011;53532;53.084;6.352;2023-03-03T01:07:38;185.73;;;24.33;;
66628;SDS011;53532;53.084;6.352;2023-03-03T01:10:04;154.17;;;23.50;;
66628;SDS011;53532;53.084;6.352;2023-03-03T01:12:31;190.70;;;26.00;;
66628;SDS011;53532;53.084;6.352;2023-03-03T01:14:57;185.63;;;24.73;;
66628;SDS011;53532;53.084;6.352;2023-03-03T01:17:23;169.77;;;24.83;;
66628;SDS011;53532;53.084;6.352;2023-03-03T01:19:50;172.10;;;28.13;;
66628;SDS011;53532;53.084;6.352;2023-03-03T01:22:17;214.10;;;32.83;;
66628;SDS011;53532;53.084;6.352;2023-03-03T01:24:43;239.47;;;30.40;;
66628;SDS011;53532;53.084;6.352;2023-03-03T01:27:09;234.53;;;32.73;;
66628;SDS011;53532;53.084;6.352;2023-03-03T01:29:35;292.90;;;34.97;;
66628;SDS011;53532;53.084;6.352;2023-03-03T01:32:01;284.40;;;36.73;;
66628;SDS011;53532;53.084;6.352;2023-03-03T01:34:27;200.47;;;25.37;;
66628;SDS011;53532;53.084;6.352;2023-03-03T01:36:55;254.97;;;28.33;;
66628;SDS011;53532;53.084;6.352;2023-03-03T01:39:21;189.03;;;25.80;;
66628;SDS011;53532;53.084;6.352;2023-03-03T01:41:47;206.33;;;26.03;;
66628;SDS011;53532;53.084;6.352;2023-03-03T01:44:14;272.33;;;31.63;;
66628;SDS011;53532;53.084;6.352;2023-03-03T01:46:43;243.10;;;26.87;;
66628;SDS011;53532;53.084;6.352;2023-03-03T01:49:13;268.10;;;30.27;;
66628;SDS011;53532;53.084;6.352;2023-03-03T01:51:44;273.17;;;30.60;;
66628;SDS011;53532;53.084;6.352;2023-03-03T01:54:14;169.20;;;24.27;;
66628;SDS011;53532;53.084;6.352;2023-03-03T01:56:41;180.30;;;23.83;;
66628;SDS011;53532;53.084;6.352;2023-03-03T01:59:08;268.70;;;28.90;;
66628;SDS011;53532;53.084;6.352;2023-03-03T02:01:36;207.73;;;27.87;;
66628;SDS011;53532;53.084;6.352;2023-03-03T02:04:03;204.43;;;28.17;;
66628;SDS011;53532;53.084;6.352;2023-03-03T02:06:29;134.87;;;22.93;;
66628;SDS011;53532;53.084;6.352;2023-03-03T02:08:59;113.87;;;19.67;;
66628;SDS011;53532;53.084;6.352;2023-03-03T02:11:27;102.70;;;20.20;;
66628;SDS011;53532;53.084;6.352;2023-03-03T02:13:54;160.63;;;23.87;;
66628;SDS011;53532;53.084;6.352;2023-03-03T02:16:21;130.60;;;19.67;;
66628;SDS011;53532;53.084;6.352;2023-03-03T02:18:47;159.63;;;21.43;;
66628;SDS011;53532;53.084;6.352;2023-03-03T02:21:14;167.20;;;22.67;;
66628;SDS011;53532;53.084;6.352;2023-03-03T02:23:42;207.90;;;27.47;;
66628;SDS011;53532;53.084;6.352;2023-03-03T02:26:13;121.87;;;22.23;;
66628;SDS011;53532;53.084;6.352;2023-03-03T02:28:40;147.63;;;22.43;;
66628;SDS011;53532;53.084;6.352;2023-03-03T02:31:07;147.60;;;23.87;;
66628;SDS011;53532;53.084;6.352;2023-03-03T02:33:38;143.35;;;21.83;;
66628;SDS011;53532;53.084;6.352;2023-03-03T02:36:04;84.43;;;17.37;;
66628;SDS011;53532;53.084;6.352;2023-03-03T02:38:31;65.17;;;15.33;;
66628;SDS011;53532;53.084;6.352;2023-03-03T02:41:02;95.80;;;17.70;;
66628;SDS011;53532;53.084;6.352;2023-03-03T02:43:32;92.40;;;17.03;;
66628;SDS011;53532;53.084;6.352;2023-03-03T02:46:02;65.93;;;15.77;;
66628;SDS011;53532;53.084;6.352;2023-03-03T02:48:28;49.07;;;14.47;;
66628;SDS011;53532;53.084;6.352;2023-03-03T02:50:54;113.87;;;19.20;;
66628;SDS011;53532;53.084;6.352;2023-03-03T02:53:20;78.10;;;16.63;;
66628;SDS011;53532;53.084;6.352;2023-03-03T02:55:46;51.67;;;14.80;;
66628;SDS011;53532;53.084;6.352;2023-03-03T02:58:12;63.73;;;17.13;;
66628;SDS011;53532;53.084;6.352;2023-03-03T03:00:40;83.80;;;18.70;;
66628;SDS011;53532;53.084;6.352;2023-03-03T03:03:06;60.60;;;15.40;;
66628;SDS011;53532;53.084;6.352;2023-03-03T03:05:32;62.43;;;17.60;;
66628;SDS011;53532;53.084;6.352;2023-03-03T03:07:58;43.60;;;14.93;;
66628;SDS011;53532;53.084;6.352;2023-03-03T03:10:24;50.50;;;16.57;;
66628;SDS011;53532;53.084;6.352;2023-03-03T03:12:52;63.20;;;17.23;;
66628;SDS011;53532;53.084;6.352;2023-03-03T03:15:18;48.27;;;16.17;;
66628;SDS011;53532;53.084;6.352;2023-03-03T03:17:45;66.00;;;18.87;;
66628;SDS011;53532;53.084;6.352;2023-03-03T03:20:12;36.83;;;14.83;;
66628;SDS011;53532;53.084;6.352;2023-03-03T03:22:39;61.43;;;17.80;;
66628;SDS011;53532;53.084;6.352;2023-03-03T03:25:05;57.50;;;18.43;;
66628;SDS011;53532;53.084;6.352;2023-03-03T03:27:32;49.40;;;16.70;;
66628;SDS011;53532;53.084;6.352;2023-03-03T03:29:58;47.03;;;16.37;;
66628;SDS011;53532;53.084;6.352;2023-03-03T03:32:24;33.47;;;14.73;;
66628;SDS011;53532;53.084;6.352;2023-03-03T03:34:52;39.30;;;15.13;;
66628;SDS011;53532;53.084;6.352;2023-03-03T03:37:18;39.53;;;14.77;;
66628;SDS011;53532;53.084;6.352;2023-03-03T03:39:44;33.23;;;13.77;;
66628;SDS011;53532;53.084;6.352;2023-03-03T03:42:10;26.40;;;13.23;;
66628;SDS011;53532;53.084;6.352;2023-03-03T03:44:36;46.17;;;17.23;;
66628;SDS011;53532;53.084;6.352;2023-03-03T03:47:02;37.33;;;15.43;;
66628;SDS011;53532;53.084;6.352;2023-03-03T03:49:29;28.23;;;14.20;;
66628;SDS011;53532;53.084;6.352;2023-03-03T03:51:56;38.93;;;15.20;;
66628;SDS011;53532;53.084;6.352;2023-03-03T03:54:22;32.13;;;15.50;;
66628;SDS011;53532;53.084;6.352;2023-03-03T03:56:48;34.17;;;15.00;;
66628;SDS011;53532;53.084;6.352;2023-03-03T03:59:15;33.57;;;15.20;;
66628;SDS011;53532;53.084;6.352;2023-03-03T04:01:41;28.47;;;14.70;;
66628;SDS011;53532;53.084;6.352;2023-03-03T04:04:07;36.60;;;14.13;;
66628;SDS011;53532;53.084;6.352;2023-03-03T04:06:33;36.40;;;15.30;;
66628;SDS011;53532;53.084;6.352;2023-03-03T04:09:01;32.67;;;15.03;;
66628;SDS011;53532;53.084;6.352;2023-03-03T04:11:27;32.30;;;15.73;;
66628;SDS011;53532;53.084;6.352;2023-03-03T04:14:00;32.07;;;15.57;;
66628;SDS011;53532;53.084;6.352;2023-03-03T04:16:27;29.73;;;14.50;;
66628;SDS011;53532;53.084;6.352;2023-03-03T04:18:53;26.73;;;14.43;;
66628;SDS011;53532;53.084;6.352;2023-03-03T04:21:19;37.07;;;16.13;;
66628;SDS011;53532;53.084;6.352;2023-03-03T04:23:45;31.90;;;15.60;;
66628;SDS011;53532;53.084;6.352;2023-03-03T04:26:13;29.70;;;15.90;;
66628;SDS011;53532;53.084;6.352;2023-03-03T04:28:39;26.80;;;14.80;;
66628;SDS011;53532;53.084;6.352;2023-03-03T04:31:05;23.50;;;13.87;;
66628;SDS011;53532;53.084;6.352;2023-03-03T04:33:31;28.33;;;15.57;;
66628;SDS011;53532;53.084;6.352;2023-03-03T04:35:57;22.70;;;13.97;;
66628;SDS011;53532;53.084;6.352;2023-03-03T04:38:24;23.43;;;14.13;;
66628;SDS011;53532;53.084;6.352;2023-03-03T04:40:50;23.93;;;14.23;;
66628;SDS011;53532;53.084;6.352;2023-03-03T04:43:18;20.73;;;13.00;;
66628;SDS011;53532;53.084;6.352;2023-03-03T04:45:44;22.70;;;13.80;;
66628;SDS011;53532;53.084;6.352;2023-03-03T04:48:10;22.67;;;13.97;;
66628;SDS011;53532;53.084;6.352;2023-03-03T04:50:37;23.90;;;14.63;;
66628;SDS011;53532;53.084;6.352;2023-03-03T04:53:03;27.20;;;15.17;;
66628;SDS011;53532;53.084;6.352;2023-03-03T04:55:29;26.73;;;14.40;;
66628;SDS011;53532;53.084;6.352;2023-03-03T04:57:55;26.33;;;15.40;;
66628;SDS011;53532;53.084;6.352;2023-03-03T05:00:23;22.77;;;14.03;;
66628;SDS011;53532;53.084;6.352;2023-03-03T05:02:49;26.03;;;14.33;;
66628;SDS011;53532;53.084;6.352;2023-03-03T05:05:16;22.97;;;13.57;;
66628;SDS011;53532;53.084;6.352;2023-03-03T05:07:43;25.60;;;14.17;;
66628;SDS011;53532;53.084;6.352;2023-03-03T05:10:09;24.10;;;15.10;;
66628;SDS011;53532;53.084;6.352;2023-03-03T05:12:35;22.97;;;14.40;;
66628;SDS011;53532;53.084;6.352;2023-03-03T05:15:02;24.10;;;14.70;;
66628;SDS011;53532;53.084;6.352;2023-03-03T05:17:29;22.30;;;13.90;;
66628;SDS011;53532;53.084;6.352;2023-03-03T05:19:55;20.20;;;13.33;;
66628;SDS011;53532;53.084;6.352;2023-03-03T05:22:22;20.37;;;13.97;;
66628;SDS011;53532;53.084;6.352;2023-03-03T05:24:48;20.80;;;13.47;;
66628;SDS011;53532;53.084;6.352;2023-03-03T05:27:14;21.27;;;13.70;;
66628;SDS011;53532;53.084;6.352;2023-03-03T05:29:40;21.33;;;13.80;;
66628;SDS011;53532;53.084;6.352;2023-03-03T05:32:06;21.93;;;13.53;;
66628;SDS011;53532;53.084;6.352;2023-03-03T05:34:34;18.83;;;12.67;;
66628;SDS011;53532;53.084;6.352;2023-03-03T05:37:00;19.93;;;13.43;;
66628;SDS011;53532;53.084;6.352;2023-03-03T05:39:27;19.03;;;13.30;;
66628;SDS011;53532;53.084;6.352;2023-03-03T05:41:53;19.00;;;12.70;;
66628;SDS011;53532;53.084;6.352;2023-03-03T05:44:20;20.40;;;13.27;;
66628;SDS011;53532;53.084;6.352;2023-03-03T05:46:47;17.90;;;12.90;;
66628;SDS011;53532;53.084;6.352;2023-03-03T05:49:13;19.30;;;13.23;;
66628;SDS011;53532;53.084;6.352;2023-03-03T05:51:40;19.17;;;13.67;;
66628;SDS011;53532;53.084;6.352;2023-03-03T05:54:06;24.23;;;15.40;;
66628;SDS011;53532;53.084;6.352;2023-03-03T05:56:33;24.17;;;14.97;;
66628;SDS011;53532;53.084;6.352;2023-03-03T05:58:59;25.03;;;15.47;;
66628;SDS011;53532;53.084;6.352;2023-03-03T06:01:25;29.10;;;16.87;;
66628;SDS011;53532;53.084;6.352;2023-03-03T06:03:52;24.20;;;15.77;;
66628;SDS011;53532;53.084;6.352;2023-03-03T06:06:18;25.50;;;16.13;;
66628;SDS011;53532;53.084;6.352;2023-03-03T06:08:46;27.20;;;16.67;;
66628;SDS011;53532;53.084;6.352;2023-03-03T06:11:12;27.30;;;17.00;;
66628;SDS011;53532;53.084;6.352;2023-03-03T06:13:40;26.33;;;15.73;;
66628;SDS011;53532;53.084;6.352;2023-03-03T06:16:07;29.97;;;16.67;;
66628;SDS011;53532;53.084;6.352;2023-03-03T06:18:33;26.40;;;15.57;;
66628;SDS011;53532;53.084;6.352;2023-03-03T06:20:59;28.63;;;17.40;;
66628;SDS011;53532;53.084;6.352;2023-03-03T06:23:25;31.73;;;18.63;;
66628;SDS011;53532;53.084;6.352;2023-03-03T06:25:53;30.10;;;18.00;;
66628;SDS011;53532;53.084;6.352;2023-03-03T06:28:19;29.97;;;17.37;;
66628;SDS011;53532;53.084;6.352;2023-03-03T06:30:45;30.53;;;17.37;;
66628;SDS011;53532;53.084;6.352;2023-03-03T06:33:11;27.70;;;16.83;;
66628;SDS011;53532;53.084;6.352;2023-03-03T06:35:37;28.23;;;16.80;;
66628;SDS011;53532;53.084;6.352;2023-03-03T06:38:03;26.40;;;16.17;;
66628;SDS011;53532;53.084;6.352;2023-03-03T06:40:30;26.03;;;16.03;;
66628;SDS011;53532;53.084;6.352;2023-03-03T06:42:57;29.83;;;16.20;;
66628;SDS011;53532;53.084;6.352;2023-03-03T06:45:23;24.80;;;15.40;;
66628;SDS011;53532;53.084;6.352;2023-03-03T06:47:50;24.57;;;16.07;;
66628;SDS011;53532;53.084;6.352;2023-03-03T06:50:16;27.30;;;16.53;;
66628;SDS011;53532;53.084;6.352;2023-03-03T06:52:43;27.87;;;16.90;;
66628;SDS011;53532;53.084;6.352;2023-03-03T06:55:10;26.17;;;16.53;;
66628;SDS011;53532;53.084;6.352;2023-03-03T06:57:37;26.03;;;16.57;;
66628;SDS011;53532;53.084;6.352;2023-03-03T07:00:13;27.50;;;17.17;;
66628;SDS011;53532;53.084;6.352;2023-03-03T07:02:40;24.97;;;15.97;;
66628;SDS011;53532;53.084;6.352;2023-03-03T07:05:08;22.27;;;14.50;;
66628;SDS011;53532;53.084;6.352;2023-03-03T07:07:35;21.73;;;14.63;;
66628;SDS011;53532;53.084;6.352;2023-03-03T07:10:05;24.20;;;15.73;;
66628;SDS011;53532;53.084;6.352;2023-03-03T07:12:32;24.30;;;16.63;;
66628;SDS011;53532;53.084;6.352;2023-03-03T07:15:01;24.87;;;17.73;;
66628;SDS011;53532;53.084;6.352;2023-03-03T07:17:37;24.87;;;17.57;;
66628;SDS011;53532;53.084;6.352;2023-03-03T07:20:07;24.90;;;17.97;;
66628;SDS011;53532;53.084;6.352;2023-03-03T07:22:36;25.15;;;18.10;;
66628;SDS011;53532;53.084;6.352;2023-03-03T07:25:05;29.33;;;19.57;;
66628;SDS011;53532;53.084;6.352;2023-03-03T07:27:40;24.63;;;18.47;;
66628;SDS011;53532;53.084;6.352;2023-03-03T07:30:12;25.47;;;18.67;;
66628;SDS011;53532;53.084;6.352;2023-03-03T07:32:44;28.23;;;19.93;;
66628;SDS011;53532;53.084;6.352;2023-03-03T07:35:20;25.80;;;19.17;;
66628;SDS011;53532;53.084;6.352;2023-03-03T07:37:48;26.93;;;19.83;;
66628;SDS011;53532;53.084;6.352;2023-03-03T07:40:24;25.97;;;19.47;;
66628;SDS011;53532;53.084;6.352;2023-03-03T07:42:52;25.90;;;19.33;;
66628;SDS011;53532;53.084;6.352;2023-03-03T07:45:24;29.27;;;20.13;;
66628;SDS011;53532;53.084;6.352;2023-03-03T07:47:52;26.90;;;19.50;;
66628;SDS011;53532;53.084;6.352;2023-03-03T07:50:21;25.93;;;18.70;;
66628;SDS011;53532;53.084;6.352;2023-03-03T07:52:49;24.37;;;18.17;;
66628;SDS011;53532;53.084;6.352;2023-03-03T07:55:22;27.87;;;19.17;;
66628;SDS011;53532;53.084;6.352;2023-03-03T07:57:51;28.57;;;20.10;;
66628;SDS011;53532;53.084;6.352;2023-03-03T08:03:07;25.97;;;19.57;;
66628;SDS011;53532;53.084;6.352;2023-03-03T08:05:35;26.13;;;19.15;;
66628;SDS011;53532;53.084;6.352;2023-03-03T08:08:09;26.33;;;18.73;;
66628;SDS011;53532;53.084;6.352;2023-03-03T08:10:38;28.37;;;19.33;;
66628;SDS011;53532;53.084;6.352;2023-03-03T08:13:08;29.80;;;20.87;;
66628;SDS011;53532;53.084;6.352;2023-03-03T08:15:37;27.63;;;20.10;;
66628;SDS011;53532;53.084;6.352;2023-03-03T08:18:07;24.80;;;19.13;;
66628;SDS011;53532;53.084;6.352;2023-03-03T08:20:43;28.90;;;19.70;;
66628;SDS011;53532;53.084;6.352;2023-03-03T08:23:10;24.45;;;19.02;;
66628;SDS011;53532;53.084;6.352;2023-03-03T08:25:36;26.10;;;18.43;;
66628;SDS011;53532;53.084;6.352;2023-03-03T08:28:03;27.67;;;18.90;;
66628;SDS011;53532;53.084;6.352;2023-03-03T08:30:29;26.43;;;19.40;;
66628;SDS011;53532;53.084;6.352;2023-03-03T08:32:56;31.43;;;20.93;;
66628;SDS011;53532;53.084;6.352;2023-03-03T08:35:23;22.07;;;17.77;;
66628;SDS011;53532;53.084;6.352;2023-03-03T08:37:50;27.63;;;19.90;;
66628;SDS011;53532;53.084;6.352;2023-03-03T08:40:16;23.73;;;18.53;;
66628;SDS011;53532;53.084;6.352;2023-03-03T08:42:42;24.70;;;18.60;;
66628;SDS011;53532;53.084;6.352;2023-03-03T08:45:08;25.57;;;18.47;;
66628;SDS011;53532;53.084;6.352;2023-03-03T08:47:35;24.13;;;18.07;;
66628;SDS011;53532;53.084;6.352;2023-03-03T08:50:27;25.43;;;18.67;;
66628;SDS011;53532;53.084;6.352;2023-03-03T08:52:54;25.27;;;18.93;;
66628;SDS011;53532;53.084;6.352;2023-03-03T08:55:20;23.77;;;18.53;;
66628;SDS011;53532;53.084;6.352;2023-03-03T08:57:46;28.10;;;19.33;;
66628;SDS011;53532;53.084;6.352;2023-03-03T09:00:13;26.13;;;19.77;;
66628;SDS011;53532;53.084;6.352;2023-03-03T09:02:41;25.10;;;18.73;;
66628;SDS011;53532;53.084;6.352;2023-03-03T09:05:07;24.63;;;17.90;;
66628;SDS011;53532;53.084;6.352;2023-03-03T09:07:35;25.00;;;18.47;;
66628;SDS011;53532;53.084;6.352;2023-03-03T09:10:02;22.97;;;17.73;;
66628;SDS011;53532;53.084;6.352;2023-03-03T09:12:29;23.83;;;17.27;;
66628;SDS011;53532;53.084;6.352;2023-03-03T09:14:56;24.07;;;17.70;;
66628;SDS011;53532;53.084;6.352;2023-03-03T09:17:24;20.50;;;16.70;;
66628;SDS011;53532;53.084;6.352;2023-03-03T09:19:51;18.97;;;14.60;;
66628;SDS011;53532;53.084;6.352;2023-03-03T09:22:17;19.57;;;14.97;;
66628;SDS011;53532;53.084;6.352;2023-03-03T09:24:46;17.93;;;14.50;;
66628;SDS011;53532;53.084;6.352;2023-03-03T09:27:14;18.80;;;14.23;;
66628;SDS011;53532;53.084;6.352;2023-03-03T09:29:42;17.00;;;13.53;;
66628;SDS011;53532;53.084;6.352;2023-03-03T09:32:15;15.97;;;13.20;;
66628;SDS011;53532;53.084;6.352;2023-03-03T09:34:43;16.50;;;12.40;;
66628;SDS011;53532;53.084;6.352;2023-03-03T09:37:17;16.73;;;12.27;;
66628;SDS011;53532;53.084;6.352;2023-03-03T09:39:49;15.30;;;11.47;;
66628;SDS011;53532;53.084;6.352;2023-03-03T09:42:31;16.07;;;11.63;;
66628;SDS011;53532;53.084;6.352;2023-03-03T09:45:11;14.53;;;11.33;;
66628;SDS011;53532;53.084;6.352;2023-03-03T09:47:53;15.93;;;11.83;;
66628;SDS011;53532;53.084;6.352;2023-03-03T09:50:26;15.73;;;13.03;;
66628;SDS011;53532;53.084;6.352;2023-03-03T09:52:55;14.53;;;11.23;;
66628;SDS011;53532;53.084;6.352;2023-03-03T09:55:35;15.93;;;12.13;;
66628;SDS011;53532;53.084;6.352;2023-03-03T09:58:12;13.45;;;10.90;;
66628;SDS011;53532;53.084;6.352;2023-03-03T10:00:43;15.75;;;11.82;;
66628;SDS011;53532;53.084;6.352;2023-03-03T10:03:34;16.03;;;11.33;;
66628;SDS011;53532;53.084;6.352;2023-03-03T10:06:08;15.75;;;12.07;;
66628;SDS011;53532;53.084;6.352;2023-03-03T10:08:38;13.25;;;11.27;;
66628;SDS011;53532;53.084;6.352;2023-03-03T10:11:16;14.40;;;11.80;;
66628;SDS011;53532;53.084;6.352;2023-03-03T10:13:50;15.85;;;12.38;;
66628;SDS011;53532;53.084;6.352;2023-03-03T10:16:44;16.25;;;11.82;;
66628;SDS011;53532;53.084;6.352;2023-03-03T10:19:14;11.27;;;8.73;;
66628;SDS011;53532;53.084;6.352;2023-03-03T10:21:48;14.25;;;10.45;;
66628;SDS011;53532;53.084;6.352;2023-03-03T10:24:18;9.50;;;7.32;;
66628;SDS011;53532;53.084;6.352;2023-03-03T10:26:57;11.63;;;8.05;;
66628;SDS011;53532;53.084;6.352;2023-03-03T10:29:33;13.65;;;8.40;;
66628;SDS011;53532;53.084;6.352;2023-03-03T10:32:08;12.00;;;8.23;;
66628;SDS011;53532;53.084;6.352;2023-03-03T10:34:44;10.75;;;7.35;;
66628;SDS011;53532;53.084;6.352;2023-03-03T10:37:14;10.43;;;6.35;;
66628;SDS011;53532;53.084;6.352;2023-03-03T10:39:46;9.52;;;5.30;;
66628;SDS011;53532;53.084;6.352;2023-03-03T10:42:25;9.35;;;4.03;;
66628;SDS011;53532;53.084;6.352;2023-03-03T10:45:05;11.25;;;5.68;;
66628;SDS011;53532;53.084;6.352;2023-03-03T10:47:39;6.47;;;2.22;;
66628;SDS011;53532;53.084;6.352;2023-03-03T10:50:12;6.80;;;2.30;;
66628;SDS011;53532;53.084;6.352;2023-03-03T10:52:42;5.23;;;1.90;;
66628;SDS011;53532;53.084;6.352;2023-03-03T10:55:19;4.65;;;1.40;;
66628;SDS011;53532;53.084;6.352;2023-03-03T10:57:53;4.38;;;1.20;;
66628;SDS011;53532;53.084;6.352;2023-03-03T11:00:23;4.45;;;1.80;;
66628;SDS011;53532;53.084;6.352;2023-03-03T11:05:34;6.85;;;1.98;;
66628;SDS011;53532;53.084;6.352;2023-03-03T11:08:04;5.80;;;1.85;;
66628;SDS011;53532;53.084;6.352;2023-03-03T11:10:36;4.63;;;1.63;;
66628;SDS011;53532;53.084;6.352;2023-03-03T11:13:09;5.75;;;2.05;;
66628;SDS011;53532;53.084;6.352;2023-03-03T11:15:41;4.90;;;1.80;;
66628;SDS011;53532;53.084;6.352;2023-03-03T11:18:11;5.75;;;1.80;;
66628;SDS011;53532;53.084;6.352;2023-03-03T11:20:41;4.00;;;2.00;;
66628;SDS011;53532;53.084;6.352;2023-03-03T11:23:18;6.63;;;1.80;;
66628;SDS011;53532;53.084;6.352;2023-03-03T11:25:48;7.00;;;1.50;;
66628;SDS011;53532;53.084;6.352;2023-03-03T11:28:27;7.15;;;2.08;;
66628;SDS011;53532;53.084;6.352;2023-03-03T11:30:59;6.78;;;1.98;;
66628;SDS011;53532;53.084;6.352;2023-03-03T11:33:29;5.55;;;1.75;;
66628;SDS011;53532;53.084;6.352;2023-03-03T11:36:04;5.10;;;1.50;;
66628;SDS011;53532;53.084;6.352;2023-03-03T11:38:36;6.53;;;1.50;;
66628;SDS011;53532;53.084;6.352;2023-03-03T11:41:07;5.97;;;1.60;;
66628;SDS011;53532;53.084;6.352;2023-03-03T11:43:39;6.70;;;1.40;;
66628;SDS011;53532;53.084;6.352;2023-03-03T11:46:08;5.15;;;1.45;;
66628;SDS011;53532;53.084;6.352;2023-03-03T11:48:38;5.25;;;1.80;;
66628;SDS011;53532;53.084;6.352;2023-03-03T11:51:06;6.15;;;1.80;;
66628;SDS011;53532;53.084;6.352;2023-03-03T11:56:21;5.60;;;1.60;;
66628;SDS011;53532;53.084;6.352;2023-03-03T11:58:51;6.00;;;1.40;;
66628;SDS011;53532;53.084;6.352;2023-03-03T12:01:19;5.07;;;1.73;;
66628;SDS011;53532;53.084;6.352;2023-03-03T12:03:47;5.43;;;2.00;;
66628;SDS011;53532;53.084;6.352;2023-03-03T12:06:17;5.88;;;1.80;;
66628;SDS011;53532;53.084;6.352;2023-03-03T12:11:45;5.32;;;1.60;;
66628;SDS011;53532;53.084;6.352;2023-03-03T12:14:16;6.63;;;2.00;;
66628;SDS011;53532;53.084;6.352;2023-03-03T12:16:48;7.25;;;1.60;;
66628;SDS011;53532;53.084;6.352;2023-03-03T12:22:04;5.00;;;1.90;;
66628;SDS011;53532;53.084;6.352;2023-03-03T12:24:33;5.43;;;1.55;;
66628;SDS011;53532;53.084;6.352;2023-03-03T12:27:10;5.13;;;1.60;;
66628;SDS011;53532;53.084;6.352;2023-03-03T12:29:41;6.00;;;1.40;;
66628;SDS011;53532;53.084;6.352;2023-03-03T12:32:17;7.07;;;1.73;;
66628;SDS011;53532;53.084;6.352;2023-03-03T12:34:49;6.97;;;1.60;;
66628;SDS011;53532;53.084;6.352;2023-03-03T12:37:22;4.45;;;1.60;;
66628;SDS011;53532;53.084;6.352;2023-03-03T12:39:55;5.18;;;1.60;;
66628;SDS011;53532;53.084;6.352;2023-03-03T12:42:28;5.45;;;1.60;;
66628;SDS011;53532;53.084;6.352;2023-03-03T12:45:00;7.35;;;1.85;;
66628;SDS011;53532;53.084;6.352;2023-03-03T12:47:32;5.90;;;1.63;;
66628;SDS011;53532;53.084;6.352;2023-03-03T12:50:04;9.57;;;1.77;;
66628;SDS011;53532;53.084;6.352;2023-03-03T12:52:37;5.32;;;1.63;;
66628;SDS011;53532;53.084;6.352;2023-03-03T12:55:10;6.70;;;1.92;;
66628;SDS011;53532;53.084;6.352;2023-03-03T12:57:42;6.00;;;1.98;;
66628;SDS011;53532;53.084;6.352;2023-03-03T13:00:19;7.50;;;1.60;;
66628;SDS011;53532;53.084;6.352;2023-03-03T13:02:51;7.15;;;1.48;;
66628;SDS011;53532;53.084;6.352;2023-03-03T13:05:23;7.20;;;1.83;;
66628;SDS011;53532;53.084;6.352;2023-03-03T13:07:53;7.38;;;1.73;;
66628;SDS011;53532;53.084;6.352;2023-03-03T13:10:23;5.67;;;1.60;;
66628;SDS011;53532;53.084;6.352;2023-03-03T13:12:52;6.60;;;1.40;;
66628;SDS011;53532;53.084;6.352;2023-03-03T13:15:24;9.02;;;1.92;;
66628;SDS011;53532;53.084;6.352;2023-03-03T13:17:55;7.20;;;1.70;;
66628;SDS011;53532;53.084;6.352;2023-03-03T13:20:28;7.50;;;2.25;;
66628;SDS011;53532;53.084;6.352;2023-03-03T13:22:57;10.23;;;2.83;;
66628;SDS011;53532;53.084;6.352;2023-03-03T13:25:32;10.55;;;2.53;;
66628;SDS011;53532;53.084;6.352;2023-03-03T13:27:59;8.40;;;1.98;;
66628;SDS011;53532;53.084;6.352;2023-03-03T13:30:29;8.70;;;1.98;;
66628;SDS011;53532;53.084;6.352;2023-03-03T13:32:58;8.45;;;2.00;;
66628;SDS011;53532;53.084;6.352;2023-03-03T13:35:29;11.02;;;2.08;;
66628;SDS011;53532;53.084;6.352;2023-03-03T13:37:56;10.57;;;2.53;;
66628;SDS011;53532;53.084;6.352;2023-03-03T13:40:24;11.63;;;2.22;;
66628;SDS011;53532;53.084;6.352;2023-03-03T13:42:52;8.55;;;2.25;;
66628;SDS011;53532;53.084;6.352;2023-03-03T13:45:22;14.65;;;2.63;;
66628;SDS011;53532;53.084;6.352;2023-03-03T13:47:52;12.05;;;2.50;;
66628;SDS011;53532;53.084;6.352;2023-03-03T13:50:21;14.85;;;2.92;;
66628;SDS011;53532;53.084;6.352;2023-03-03T13:52:53;17.40;;;3.00;;
66628;SDS011;53532;53.084;6.352;2023-03-03T13:55:26;12.52;;;2.78;;
66628;SDS011;53532;53.084;6.352;2023-03-03T13:57:58;13.45;;;3.83;;
66628;SDS011;53532;53.084;6.352;2023-03-03T14:00:28;16.83;;;5.47;;
66628;SDS011;53532;53.084;6.352;2023-03-03T14:02:59;17.17;;;4.32;;
66628;SDS011;53532;53.084;6.352;2023-03-03T14:05:33;16.75;;;4.38;;
66628;SDS011;53532;53.084;6.352;2023-03-03T14:08:02;16.45;;;3.88;;
66628;SDS011;53532;53.084;6.352;2023-03-03T14:10:30;20.55;;;4.18;;
66628;SDS011;53532;53.084;6.352;2023-03-03T14:13:00;17.85;;;4.35;;
66628;SDS011;53532;53.084;6.352;2023-03-03T14:15:28;16.20;;;4.82;;
66628;SDS011;53532;53.084;6.352;2023-03-03T14:18:04;15.63;;;4.70;;
66628;SDS011;53532;53.084;6.352;2023-03-03T14:20:31;14.98;;;4.68;;
66628;SDS011;53532;53.084;6.352;2023-03-03T14:23:00;19.67;;;4.68;;
66628;SDS011;53532;53.084;6.352;2023-03-03T14:25:28;25.67;;;4.63;;
66628;SDS011;53532;53.084;6.352;2023-03-03T14:28:14;19.30;;;4.18;;
66628;SDS011;53532;53.084;6.352;2023-03-03T14:30:42;21.88;;;4.18;;
66628;SDS011;53532;53.084;6.352;2023-03-03T14:33:20;18.88;;;4.78;;
66628;SDS011;53532;53.084;6.352;2023-03-03T14:35:51;18.13;;;4.93;;
66628;SDS011;53532;53.084;6.352;2023-03-03T14:38:34;16.33;;;4.30;;
66628;SDS011;53532;53.084;6.352;2023-03-03T14:41:09;24.48;;;7.90;;
66628;SDS011;53532;53.084;6.352;2023-03-03T14:43:38;22.90;;;7.25;;
66628;SDS011;53532;53.084;6.352;2023-03-03T14:46:22;22.50;;;6.40;;
66628;SDS011;53532;53.084;6.352;2023-03-03T14:48:56;18.98;;;6.57;;
66628;SDS011;53532;53.084;6.352;2023-03-03T14:51:23;22.27;;;7.18;;
66628;SDS011;53532;53.084;6.352;2023-03-03T14:53:51;21.00;;;7.15;;